createdAt,value
2019-03-08T00:00:00.807Z,81.20
2019-03-08T00:02:29.194Z,81.00
2019-03-08T00:04:57.894Z,80.60
2019-03-08T00:07:26.248Z,80.30
2019-03-08T00:09:55.318Z,80.80
2019-03-08T00:12:23.656Z,80.10
2019-03-08T00:14:52.123Z,80.20
2019-03-08T00:17:22.217Z,80.80
2019-03-08T00:19:50.686Z,80.50
2019-03-08T00:22:19.307Z,80.10
2019-03-08T00:24:47.860Z,80.00
2019-03-08T00:27:16.447Z,80.50
2019-03-08T00:29:44.745Z,80.90
2019-03-08T00:32:13.013Z,80.90
2019-03-08T00:34:41.303Z,81.50
2019-03-08T00:37:09.655Z,81.20
2019-03-08T00:39:38.082Z,81.40
2019-03-08T00:42:06.335Z,81.40
2019-03-08T00:44:34.592Z,82.00
2019-03-08T00:47:02.895Z,82.80
2019-03-08T00:49:31.216Z,83.40
2019-03-08T00:51:59.552Z,84.20
2019-03-08T00:54:28.203Z,83.70
2019-03-08T00:56:56.480Z,83.40
2019-03-08T00:59:24.758Z,83.70
2019-03-08T01:01:53.019Z,83.50
2019-03-08T01:04:21.293Z,84.00
2019-03-08T01:06:49.638Z,84.60
2019-03-08T01:09:18.271Z,84.00
2019-03-08T01:11:46.699Z,83.90
2019-03-08T01:14:15.027Z,83.20
2019-03-08T01:16:43.468Z,83.20
2019-03-08T01:19:11.796Z,83.10
2019-03-08T01:21:40.050Z,82.70
2019-03-08T01:24:08.724Z,82.60
2019-03-08T01:26:37.027Z,82.60
2019-03-08T01:29:05.343Z,82.70
2019-03-08T01:31:33.640Z,82.10
2019-03-08T01:34:01.944Z,81.70
2019-03-08T01:36:30.208Z,81.20
2019-03-08T01:38:58.743Z,81.10
2019-03-08T01:41:27.087Z,80.80
2019-03-08T01:43:55.419Z,80.90
2019-03-08T01:46:23.694Z,81.20
2019-03-08T01:48:51.983Z,81.10
2019-03-08T01:51:20.304Z,80.30
2019-03-08T01:53:48.577Z,80.10
2019-03-08T01:56:16.852Z,79.60
2019-03-08T01:58:45.167Z,79.40
2019-03-08T02:01:13.463Z,79.60
2019-03-08T02:03:41.789Z,78.70
2019-03-08T02:06:10.055Z,78.50
2019-03-08T02:08:38.397Z,78.20
2019-03-08T02:11:06.666Z,78.20
2019-03-08T02:13:34.999Z,79.10
2019-03-08T02:16:03.256Z,78.60
2019-03-08T02:18:31.611Z,78.80
2019-03-08T02:21:06.802Z,78.30
2019-03-08T02:23:29.830Z,78.30
2019-03-08T02:25:58.105Z,78.30
2019-03-08T02:28:26.414Z,78.60
2019-03-08T02:30:54.701Z,78.50
2019-03-08T02:33:23.070Z,78.40
2019-03-08T02:35:51.405Z,78.50
2019-03-08T02:38:19.750Z,78.60
2019-03-08T02:40:48.011Z,78.30
2019-03-08T02:43:17.621Z,78.40
2019-03-08T02:45:45.988Z,78.50
2019-03-08T02:48:14.310Z,77.90
2019-03-08T02:50:42.682Z,77.80
2019-03-08T02:53:10.990Z,78.00
2019-03-08T02:55:39.305Z,78.20
2019-03-08T02:58:09.192Z,78.00
2019-03-08T03:00:40.719Z,77.60
2019-03-08T03:03:09.086Z,77.60
2019-03-08T03:05:37.357Z,77.10
2019-03-08T03:08:05.823Z,77.20
2019-03-08T03:10:34.095Z,77.00
2019-03-08T03:13:02.375Z,76.80
2019-03-08T03:15:30.624Z,76.60
2019-03-08T03:17:58.910Z,76.70
2019-03-08T03:20:27.176Z,76.40
2019-03-08T03:22:55.824Z,76.80
2019-03-08T03:25:24.057Z,75.70
2019-03-08T03:27:52.331Z,74.40
2019-03-08T03:30:20.884Z,73.70
2019-03-08T03:32:49.221Z,73.80
2019-03-08T03:35:17.527Z,74.20
2019-03-08T03:37:46.163Z,74.30
2019-03-08T03:40:16.066Z,74.90
2019-03-08T03:42:44.333Z,73.80
2019-03-08T03:45:14.453Z,74.00
2019-03-08T03:47:42.707Z,73.90
2019-03-08T03:50:12.134Z,73.40
2019-03-08T03:52:40.688Z,73.80
2019-03-08T03:55:11.824Z,73.40
2019-03-08T03:57:40.100Z,74.00
2019-03-08T04:00:11.845Z,73.50
2019-03-08T04:02:40.263Z,73.40
2019-03-08T04:05:08.943Z,72.90
2019-03-08T04:07:37.259Z,73.30
2019-03-08T04:10:08.709Z,72.20
2019-03-08T04:12:36.966Z,71.90
2019-03-08T04:15:07.982Z,72.20
2019-03-08T04:17:36.241Z,72.30
2019-03-08T04:20:07.126Z,72.50
2019-03-08T04:22:35.398Z,71.90
2019-03-08T04:25:04.691Z,71.60
2019-03-08T04:27:32.947Z,71.80
2019-03-08T04:30:01.296Z,72.10
2019-03-08T04:32:29.706Z,71.90
2019-03-08T04:34:58.280Z,72.20
2019-03-08T04:37:26.543Z,72.30
2019-03-08T04:39:54.809Z,72.50
2019-03-08T04:42:23.127Z,74.10
2019-03-08T04:44:51.374Z,76.00
2019-03-08T04:47:19.654Z,77.60
2019-03-08T04:49:48.273Z,78.50
2019-03-08T04:52:16.625Z,78.60
2019-03-08T04:54:44.973Z,78.30
2019-03-08T04:57:16.142Z,77.50
2019-03-08T04:59:44.504Z,77.40
2019-03-08T05:02:12.812Z,77.40
2019-03-08T05:04:41.271Z,77.50
2019-03-08T05:07:23.061Z,77.90
2019-03-08T05:09:51.339Z,78.10
2019-03-08T05:12:19.770Z,78.20
2019-03-08T05:14:48.076Z,78.00
2019-03-08T05:17:18.142Z,77.60
2019-03-08T05:19:46.485Z,77.40
2019-03-08T05:22:14.751Z,76.80
2019-03-08T05:24:43.020Z,76.20
2019-03-08T05:27:11.356Z,75.50
2019-03-08T05:29:39.619Z,76.10
2019-03-08T05:32:08.286Z,76.10
2019-03-08T05:34:36.622Z,76.10
2019-03-08T05:37:04.879Z,75.50
2019-03-08T05:39:33.137Z,74.80
2019-03-08T05:42:01.603Z,74.50
2019-03-08T05:44:29.866Z,74.30
2019-03-08T05:46:58.495Z,74.50
2019-03-08T05:49:26.798Z,75.00
2019-03-08T05:51:55.075Z,74.80
2019-03-08T05:54:23.422Z,75.20
2019-03-08T05:56:51.697Z,75.70
2019-03-08T05:59:19.965Z,75.90
2019-03-08T06:01:48.208Z,76.30
2019-03-08T06:04:16.462Z,76.80
2019-03-08T06:06:44.708Z,77.10
2019-03-08T06:09:12.958Z,77.40
2019-03-08T06:11:41.218Z,77.60
2019-03-08T06:14:09.709Z,78.10
2019-03-08T06:16:38.091Z,78.20
2019-03-08T06:25:43.018Z,78.70
2019-03-08T06:28:11.376Z,77.80
2019-03-08T06:30:39.699Z,77.70
2019-03-08T06:33:07.999Z,77.50
2019-03-08T06:35:36.287Z,77.00
2019-03-08T06:38:04.640Z,77.00
2019-03-08T06:40:32.958Z,76.50
2019-03-08T06:43:01.211Z,76.30
2019-03-08T06:45:29.788Z,75.90
2019-03-08T06:47:58.105Z,75.60
2019-03-08T06:50:26.443Z,75.50
2019-03-08T06:52:54.735Z,75.30
2019-03-08T06:55:23.013Z,75.20
2019-03-08T06:57:54.653Z,75.20
2019-03-08T07:00:24.939Z,74.90
2019-03-08T07:02:55.822Z,74.90
2019-03-08T07:05:24.229Z,75.40
2019-03-08T07:07:52.577Z,74.40
2019-03-08T07:10:20.914Z,74.90
2019-03-08T07:12:49.296Z,74.90
2019-03-08T07:15:18.023Z,75.00
2019-03-08T07:17:46.329Z,74.90
2019-03-08T07:20:16.284Z,74.70
2019-03-08T07:22:46.343Z,74.60
2019-03-08T07:25:16.334Z,74.70
2019-03-08T07:27:46.299Z,73.90
2019-03-08T07:30:16.239Z,72.60
2019-03-08T07:32:46.199Z,72.60
2019-03-08T07:35:16.111Z,72.00
2019-03-08T07:37:46.047Z,71.60
2019-03-08T07:40:15.977Z,71.00
2019-03-08T07:42:46.282Z,71.00
2019-03-08T07:45:16.199Z,70.90
2019-03-08T07:47:46.163Z,71.20
2019-03-08T07:50:16.070Z,71.20
2019-03-08T07:52:46.062Z,71.70
2019-03-08T07:55:15.971Z,71.80
2019-03-08T07:57:45.870Z,72.00
2019-03-08T08:00:17.114Z,71.80
2019-03-08T08:02:47.065Z,71.90
2019-03-08T08:05:17.071Z,72.20
2019-03-08T08:07:47.075Z,72.40
2019-03-08T08:10:17.080Z,71.50
2019-03-08T08:12:47.150Z,70.80
2019-03-08T08:15:17.022Z,70.60
2019-03-08T08:17:47.172Z,70.30
2019-03-08T08:20:17.078Z,69.90
2019-03-08T08:22:46.998Z,69.80
2019-03-08T08:25:42.235Z,70.90
2019-03-08T08:28:12.227Z,71.10
2019-03-08T08:30:42.328Z,71.20
2019-03-08T08:33:12.290Z,71.10
2019-03-08T08:35:42.309Z,70.30
2019-03-08T08:38:12.286Z,69.60
2019-03-08T08:40:42.183Z,69.20
2019-03-08T08:43:12.097Z,69.30
2019-03-08T08:45:42.019Z,69.20
2019-03-08T08:48:11.923Z,68.20
2019-03-08T08:50:41.868Z,68.80
2019-03-08T08:53:11.784Z,68.90
2019-03-08T08:55:43.545Z,69.60
2019-03-08T08:58:13.330Z,69.60
2019-03-08T09:00:43.246Z,69.40
2019-03-08T09:03:13.202Z,68.30
2019-03-08T09:05:43.131Z,68.80
2019-03-08T09:08:13.055Z,66.80
2019-03-08T09:10:43.123Z,66.60
2019-03-08T09:13:13.066Z,65.00
2019-03-08T09:15:43.104Z,65.00
2019-03-08T09:18:13.107Z,66.50
2019-03-08T09:20:43.005Z,66.70
2019-03-08T09:23:12.912Z,67.10
2019-03-08T09:25:45.417Z,66.40
2019-03-08T09:28:15.307Z,65.90
2019-03-08T09:30:45.246Z,65.20
2019-03-08T09:33:15.272Z,65.10
2019-03-08T09:35:45.195Z,65.60
2019-03-08T09:38:15.187Z,66.30
2019-03-08T09:40:45.173Z,66.20
2019-03-08T09:43:15.143Z,65.60
2019-03-08T09:45:45.031Z,65.10
2019-03-08T09:48:15.023Z,65.30
2019-03-08T09:50:45.118Z,64.90
2019-03-08T09:53:15.010Z,64.70
2019-03-08T09:55:44.982Z,65.20
2019-03-08T09:58:14.945Z,65.50
2019-03-08T10:00:44.923Z,65.20
2019-03-08T10:03:15.069Z,64.80
2019-03-08T10:05:44.979Z,65.30
2019-03-08T10:08:14.979Z,63.60
2019-03-08T10:10:44.996Z,64.00
2019-03-08T10:13:14.975Z,64.20
2019-03-08T10:15:44.996Z,65.30
2019-03-08T10:18:15.001Z,65.30
2019-03-08T10:21:00.527Z,63.80
2019-03-08T10:23:29.726Z,62.90
2019-03-08T10:25:59.811Z,62.80
2019-03-08T10:28:30.054Z,63.70
2019-03-08T10:31:00.405Z,62.70
2019-03-08T10:33:30.310Z,62.30
2019-03-08T10:36:00.191Z,63.20
2019-03-08T10:38:30.147Z,63.90
2019-03-08T10:41:01.059Z,62.50
2019-03-08T10:43:30.999Z,62.60
2019-03-08T10:46:00.976Z,62.30
2019-03-08T10:48:30.997Z,62.90
2019-03-08T10:51:00.931Z,62.80
2019-03-08T10:53:31.133Z,63.20
2019-03-08T10:56:01.020Z,63.80
2019-03-08T10:58:30.909Z,64.80
2019-03-08T11:01:00.909Z,64.10
2019-03-08T11:03:30.838Z,63.70
2019-03-08T11:06:00.810Z,62.50
2019-03-08T11:08:30.727Z,62.20
2019-03-08T11:11:06.351Z,63.20
2019-03-08T11:13:32.438Z,62.10
2019-03-08T11:16:02.381Z,62.30
2019-03-08T11:18:32.289Z,63.50
2019-03-08T11:21:02.434Z,64.60
2019-03-08T11:23:32.375Z,65.20
2019-03-08T11:26:02.283Z,65.50
2019-03-08T11:28:32.290Z,65.10
2019-03-08T11:31:02.203Z,65.50
2019-03-08T11:33:32.427Z,64.50
2019-03-08T11:36:02.396Z,64.10
2019-03-08T11:38:32.320Z,62.80
2019-03-08T11:41:02.322Z,63.30
2019-03-08T11:43:32.323Z,61.90
2019-03-08T11:46:02.575Z,61.90
2019-03-08T11:48:32.510Z,62.50
2019-03-08T11:51:04.956Z,61.00
2019-03-08T11:53:34.974Z,58.10
2019-03-08T11:56:04.948Z,57.90
2019-03-08T11:58:34.827Z,59.30
2019-03-08T12:01:13.336Z,59.30
2019-03-08T12:03:43.305Z,59.30
2019-03-08T12:06:13.210Z,57.80
2019-03-08T12:08:43.090Z,57.30
2019-03-08T12:11:16.533Z,58.20
2019-03-08T12:13:46.618Z,59.00
2019-03-08T12:16:49.709Z,57.10
2019-03-08T12:19:19.589Z,56.70
2019-03-08T12:21:49.495Z,58.20
2019-03-08T12:24:19.403Z,59.00
2019-03-08T12:26:49.318Z,59.50
2019-03-08T12:29:19.207Z,59.80
2019-03-08T12:31:49.082Z,60.10
2019-03-08T12:34:19.063Z,59.00
2019-03-08T12:36:48.999Z,57.80
2019-03-08T12:39:18.945Z,58.60
2019-03-08T12:41:48.842Z,57.70
2019-03-08T12:44:19.033Z,56.60
2019-03-08T12:46:48.949Z,56.00
2019-03-08T12:49:18.839Z,55.60
2019-03-08T12:51:48.893Z,56.10
2019-03-08T12:54:19.581Z,54.00
2019-03-08T12:56:49.840Z,53.30
2019-03-08T12:59:19.751Z,53.70
2019-03-08T13:01:49.715Z,51.00
2019-03-08T13:04:19.642Z,51.90
2019-03-08T13:06:49.576Z,52.00
2019-03-08T13:09:19.877Z,52.70
2019-03-08T13:11:48.142Z,52.40
2019-03-08T13:14:16.400Z,52.20
2019-03-08T13:16:44.689Z,52.00
2019-03-08T13:19:12.958Z,53.40
2019-03-08T13:21:41.249Z,54.60
2019-03-08T13:24:09.703Z,54.20
2019-03-08T13:26:37.991Z,54.40
2019-03-08T13:29:06.319Z,55.10
2019-03-08T13:31:34.657Z,55.20
2019-03-08T13:34:02.998Z,55.60
2019-03-08T13:36:31.310Z,54.60
2019-03-08T13:38:59.591Z,53.90
2019-03-08T13:41:27.906Z,53.70
2019-03-08T13:43:56.165Z,54.20
2019-03-08T13:46:24.599Z,54.80
2019-03-08T14:14:12.906Z,56.10
2019-03-08T14:16:41.166Z,56.20
2019-03-08T14:19:09.420Z,57.30
2019-03-08T14:21:37.784Z,58.30
2019-03-08T14:24:06.479Z,58.00
2019-03-08T14:26:40.018Z,58.60
2019-03-08T14:29:08.102Z,58.90
2019-03-08T14:31:38.510Z,59.70
2019-03-08T14:34:10.696Z,59.40
2019-03-08T14:36:39.090Z,59.40
2019-03-08T14:39:07.956Z,59.80
2019-03-08T14:41:38.762Z,59.30
2019-03-08T14:44:08.965Z,59.10
2019-03-08T14:46:38.938Z,59.60
2019-03-08T14:49:07.799Z,60.60
2019-03-08T14:51:36.250Z,60.00
2019-03-08T14:54:06.069Z,60.00
2019-03-08T14:56:35.841Z,60.20
2019-03-08T14:59:04.648Z,60.30
2019-03-08T15:01:33.015Z,60.10
2019-03-08T15:04:01.301Z,60.00
2019-03-08T15:06:35.432Z,60.10
2019-03-08T15:09:10.842Z,60.50
2019-03-08T15:11:39.806Z,60.70
2019-03-08T15:14:08.087Z,61.20
2019-03-08T15:16:39.218Z,61.60
2019-03-08T15:19:16.957Z,62.00
2019-03-08T15:21:48.589Z,62.80
2019-03-08T15:24:15.412Z,63.00
2019-03-08T15:26:48.360Z,63.30
2019-03-08T15:29:16.675Z,63.60
2019-03-08T15:31:45.019Z,64.30
2019-03-08T15:34:14.529Z,64.20
2019-03-08T15:36:43.335Z,64.60
2019-03-08T15:39:11.703Z,65.20
2019-03-08T15:41:40.080Z,65.00
2019-03-08T15:44:10.053Z,65.10
2019-03-08T15:46:38.494Z,65.40
2019-03-08T15:49:06.757Z,65.60
2019-03-08T15:51:34.995Z,65.80
2019-03-08T15:54:03.959Z,66.00
2019-03-08T15:56:32.556Z,66.20
2019-03-08T16:02:12.781Z,66.70
2019-03-08T16:04:41.141Z,66.90
2019-03-08T16:07:09.970Z,67.50
2019-03-08T16:09:38.253Z,67.90
2019-03-08T16:12:06.549Z,68.30
2019-03-08T16:14:34.790Z,68.00
2019-03-08T16:17:03.063Z,68.00
2019-03-08T16:19:31.622Z,68.70
2019-03-08T16:22:00.003Z,68.80
2019-03-08T16:27:03.978Z,68.80
2019-03-08T16:29:32.295Z,68.80
2019-03-08T16:32:02.455Z,69.10
2019-03-08T16:34:30.884Z,69.40
2019-03-08T16:37:00.819Z,69.40
2019-03-08T16:39:30.800Z,69.70
2019-03-08T16:42:00.741Z,69.90
2019-03-08T16:44:30.784Z,69.80
2019-03-08T16:47:00.665Z,69.70
2019-03-08T16:49:30.589Z,69.40
2019-03-08T16:52:00.521Z,69.60
2019-03-08T16:54:30.500Z,69.70
2019-03-08T16:57:00.395Z,69.50
2019-03-08T16:59:30.293Z,69.40
2019-03-08T17:02:00.194Z,69.00
2019-03-08T17:04:30.083Z,68.80
2019-03-08T17:06:59.962Z,68.50
2019-03-08T17:09:29.890Z,68.30
2019-03-08T17:11:59.900Z,67.90
2019-03-08T17:14:29.793Z,67.70
2019-03-08T17:16:59.703Z,67.90
2019-03-08T17:19:30.059Z,68.10
2019-03-08T17:21:59.969Z,68.20
2019-03-08T17:24:29.863Z,68.30
2019-03-08T17:26:59.755Z,68.60
2019-03-08T17:29:29.653Z,68.70
2019-03-08T17:31:59.914Z,68.90
2019-03-08T17:34:29.794Z,69.10
2019-03-08T17:36:59.678Z,69.10
2019-03-08T17:39:29.570Z,69.10
2019-03-08T17:41:59.464Z,69.40
2019-03-08T17:44:29.610Z,69.60
2019-03-08T17:46:59.494Z,69.60
2019-03-08T17:49:29.388Z,69.80
2019-03-08T17:51:59.282Z,69.80
2019-03-08T17:54:29.187Z,69.80
2019-03-08T17:56:59.082Z,69.70
2019-03-08T17:59:28.977Z,70.10
2019-03-08T18:01:58.925Z,70.30
2019-03-08T18:04:28.904Z,70.70
2019-03-08T18:06:58.807Z,70.80
2019-03-08T18:09:28.715Z,70.90
2019-03-08T18:11:58.613Z,71.30
2019-03-08T18:14:28.540Z,71.30
2019-03-08T18:16:58.490Z,71.50
2019-03-08T18:19:28.390Z,71.80
2019-03-08T18:21:58.384Z,71.50
2019-03-08T18:24:28.340Z,72.00
2019-03-08T18:26:58.240Z,71.40
2019-03-08T18:29:28.128Z,71.70
2019-03-08T18:31:58.033Z,71.70
2019-03-08T18:34:27.942Z,71.80
2019-03-08T18:36:57.825Z,71.90
2019-03-08T18:39:27.708Z,72.00
2019-03-08T18:41:57.648Z,72.60
2019-03-08T18:44:27.903Z,72.30
2019-03-08T18:46:57.788Z,72.40
2019-03-08T18:49:27.686Z,72.50
2019-03-08T18:51:57.610Z,72.40
2019-03-08T18:54:27.492Z,72.50
2019-03-08T18:56:57.482Z,72.20
2019-03-08T18:59:27.370Z,71.80
2019-03-08T19:01:59.999Z,71.50
2019-03-08T19:04:29.894Z,71.60
2019-03-08T19:06:59.806Z,71.70
2019-03-08T19:09:29.708Z,71.60
2019-03-08T19:11:59.630Z,71.10
2019-03-08T19:14:29.532Z,71.00
2019-03-08T19:16:59.423Z,71.30
2019-03-08T19:19:29.308Z,71.60
2019-03-08T19:21:59.214Z,72.10
2019-03-08T19:24:29.107Z,72.40
2019-03-08T19:26:59.027Z,72.70
2019-03-08T19:29:28.926Z,72.80
2019-03-08T19:31:59.007Z,72.70
2019-03-08T19:34:28.946Z,72.60
2019-03-08T19:36:58.851Z,72.50
2019-03-08T19:39:28.749Z,72.60
2019-03-08T19:41:58.718Z,72.50
2019-03-08T19:44:28.595Z,72.50
2019-03-08T19:46:58.495Z,72.50
2019-03-08T19:49:28.505Z,72.60
2019-03-08T19:51:58.413Z,72.80
2019-03-08T19:54:28.361Z,73.10
2019-03-08T19:56:58.316Z,73.10
2019-03-08T19:59:28.252Z,73.00
2019-03-08T20:01:58.162Z,72.80
2019-03-08T20:04:28.131Z,72.90
2019-03-08T20:06:58.036Z,72.80
2019-03-08T20:09:27.907Z,72.80
2019-03-08T20:11:57.827Z,72.60
2019-03-08T20:14:27.701Z,72.50
2019-03-08T20:16:57.614Z,72.30
2019-03-08T20:19:27.514Z,72.00
2019-03-08T20:21:57.423Z,71.70
2019-03-08T20:24:27.285Z,71.50
2019-03-08T20:26:57.206Z,71.70
2019-03-08T20:29:27.167Z,71.80
2019-03-08T20:31:57.530Z,71.90
2019-03-08T20:34:27.414Z,72.60
2019-03-08T20:36:57.295Z,72.40
2019-03-08T20:39:27.204Z,71.50
2019-03-08T20:41:57.067Z,71.40
2019-03-08T20:44:27.155Z,70.40
2019-03-08T20:46:57.127Z,70.40
2019-03-08T20:49:25.386Z,71.00
2019-03-08T20:51:53.630Z,72.10
2019-03-08T20:54:22.330Z,72.90
2019-03-08T20:56:50.963Z,73.00
2019-03-08T20:59:19.202Z,73.50
2019-03-08T21:01:47.471Z,73.80
2019-03-08T21:04:15.723Z,73.70
2019-03-08T21:06:43.955Z,73.90
2019-03-08T21:09:12.184Z,73.90
2019-03-08T21:11:40.522Z,74.30
2019-03-08T21:14:08.767Z,74.70
2019-03-08T21:16:37.522Z,75.00
2019-03-08T21:19:06.437Z,75.10
2019-03-08T21:21:34.782Z,75.20
2019-03-08T21:24:03.098Z,75.50
2019-03-08T21:26:31.413Z,75.60
2019-03-08T21:28:59.686Z,75.80
2019-03-08T21:31:27.961Z,75.90
2019-03-08T21:33:56.209Z,76.30
2019-03-08T21:36:24.566Z,76.80
2019-03-08T21:38:53.089Z,77.00
2019-03-08T21:41:21.354Z,77.60
2019-03-08T21:43:49.626Z,77.70
2019-03-08T21:46:17.924Z,77.70
2019-03-08T21:48:46.229Z,77.60
2019-03-08T21:51:14.536Z,77.60
2019-03-08T21:53:42.789Z,77.30
2019-03-08T21:56:11.059Z,77.40
2019-03-08T21:58:39.292Z,77.10
2019-03-08T22:01:07.564Z,77.20
2019-03-08T22:03:35.851Z,77.40
2019-03-08T22:06:04.502Z,77.30
2019-03-08T22:08:32.892Z,77.60
2019-03-08T22:11:02.832Z,77.50
2019-03-08T22:13:31.074Z,77.50
2019-03-08T22:15:59.332Z,77.70
2019-03-08T22:18:27.689Z,78.20
2019-03-08T22:20:55.923Z,78.60
2019-03-08T22:23:24.166Z,79.30
2019-03-08T22:25:52.430Z,79.20
2019-03-08T22:28:20.710Z,79.80
2019-03-08T22:30:49.069Z,80.00
2019-03-08T22:33:17.504Z,80.20
2019-03-08T22:35:45.778Z,80.00
2019-03-08T22:38:14.098Z,80.20
2019-03-08T22:40:42.349Z,80.00
2019-03-08T22:43:10.617Z,80.40
2019-03-08T22:45:38.863Z,80.60
2019-03-08T22:48:07.447Z,80.30
2019-03-08T22:50:35.741Z,80.40
2019-03-08T22:53:05.679Z,80.60
2019-03-08T22:55:34.100Z,80.60
2019-03-08T22:58:02.455Z,80.60
2019-03-08T23:03:58.286Z,80.70
2019-03-08T23:06:39.388Z,81.10
2019-03-08T23:09:08.293Z,80.70
2019-03-08T23:15:09.186Z,80.60
2019-03-08T23:17:37.431Z,80.70
2019-03-08T23:20:07.979Z,80.80
2019-03-08T23:22:36.251Z,81.00
2019-03-08T23:25:05.052Z,81.20
2019-03-08T23:27:35.019Z,81.60
2019-03-08T23:30:04.818Z,82.00
2019-03-08T23:32:34.800Z,81.90
2019-03-08T23:35:03.055Z,82.20
2019-03-08T23:37:31.321Z,82.30
2019-03-08T23:39:59.574Z,82.70
2019-03-08T23:42:28.231Z,83.00
2019-03-08T23:44:56.493Z,82.60
2019-03-08T23:47:24.781Z,82.50
2019-03-08T23:49:53.093Z,82.60
2019-03-08T23:52:21.435Z,82.50
2019-03-08T23:54:49.768Z,82.80
2019-03-08T23:57:18.038Z,83.20
2019-03-08T23:59:46.314Z,83.10
